Main page
METAR-TAF:

METAR-TAF

Airports :

Sumburgh Airport

Sumburgh, Shetland, Scotland

latitude: 59-53N, longitude: 001-18W, elevation: 5 m

Current weather observation

The report was made 46 minutes ago, at 19:20 UTC
Wind 1 kt from variable directions
Temperature 11°C
Humidity 87%
Pressure 1020 hPa
Visibility 10 km or more

METAR: EGPB 191920Z AUTO VRB01KT 9999 OVC043/// 11/09 Q1020

Time: 21:06 (20:06 UTC)

Forecast

The report was made 3 hours and 9 minutes ago, at 16:57 UTC
Forecast valid from 19 at 18 UTC to 20 at 03 UTC
Wind 5 kt from the Southeast
Visibility 10 km or more
Scattered clouds at a height of 1200 ft
Probability 30% :
Temporary
from 19 at 18 UTC to 20 at 03 UTC
Broken clouds at a height of 1000 ft

TAF: EGPB 191657Z 1918/2003 13005KT 9999 SCT012 PROB30 TEMPO 1918/2003 BKN010

Weather observations and forecasts of more than 4000 airports (METAR and TAF reports).

The available stations are represented by yellow and red dots on the map.

Hover mouse over dot to see the name of the station.

Then click to see weather observations and forecasts.

To change the map : click on the green buttons with a black cross to zoom in, on the green button with a dash to zoom out, or on the green arrows for adjacent maps.


METAR-TAF: